Celine — HBEF — position and weather

sailwx.info

Track history (hours):
 
Tides and Currents Weather Stations Pressure Air Temp Water Temp Dewpoint Dewpoint Depression Visibility Wind Speed Wind Dir Waves Ship Positions

Celine

Last reported at 2016-Apr-28 05:14 UTC. Time now 2016-May-04 15:29 UTC.
Position N 66°16' E 011°21'.

Length 129 m; draft 6.2 m.

Type: Cargo ship. MMSI: 269057000.

Date/timePositionNaut miles runAvg speedWind from/ knotsBaromVisibWave heightAir tempDewpointWater temp
2016-Apr-28 05:14N 66°16' E 011°21'811.8
2016-Apr-28 04:32N 66°16' E 011°42'1212.2
2016-Apr-28 03:33N 66°17' E 012°12'1212.2
2016-Apr-28 02:34N 66°13' E 012°40'6 0.1
2016-Apr-26 09:21N 66°09' E 012°52'1012.7
2016-Apr-26 08:33N 66°14' E 012°30'1211.9
2016-Apr-26 07:33N 66°17' E 012°01'50011.1
2016-Apr-24 10:30N 58°44' E 004°22'1010.4
2016-Apr-24 09:31N 58°34' E 004°27'5410.1
2016-Apr-24 04:09N 57°43' E 004°58'6 9.4
2016-Apr-24 03:33N 57°37' E 005°01'20111.2
2016-Apr-23 09:33N 54°16' E 005°11'1211.8
2016-Apr-23 08:32N 54°05' E 005°07'1312.2
2016-Apr-23 07:30N 53°53' E 004°59'1312.7
2016-Apr-23 06:30N 53°41' E 004°52'2813.6
2016-Apr-23 04:25N 53°15' E 004°34'1213.7
2016-Apr-23 03:33N 53°04' E 004°24'1313.0
2016-Apr-23 02:33N 52°52' E 004°16'1312.6
2016-Apr-23 01:32N 52°41' E 004°04'1211.8
2016-Apr-23 00:33N 52°32' E 003°54'1212.0
2016-Apr-22 23:33N 52°20' E 003°52'1211.8
2016-Apr-22 22:33N 52°08' E 003°55'8 7.7
2016-Apr-22 21:33N 52°01' E 003°59'1413.8
2016-Apr-22 20:33N 51°54' E 004°18'2 2.2
2016-Apr-22 19:33N 51°54' E 004°22'0 0.0
2016-Apr-22 18:33N 51°54' E 004°22'0 0.0
2016-Apr-22 17:33N 51°54' E 004°22'0 0.0
2016-Apr-22 16:33N 51°54' E 004°22'0 0.0
2016-Apr-22 15:30N 51°54' E 004°22'0 0.0
2016-Apr-22 14:33N 51°54' E 004°22'0 0.1
2016-Apr-22 13:33N 51°54' E 004°22'0 0.0
2016-Apr-22 12:33N 51°54' E 004°22'0 0.0
2016-Apr-22 11:33N 51°54' E 004°22'0 0.0
2016-Apr-22 10:33N 51°54' E 004°22'0 0.0
2016-Apr-22 09:33N 51°54' E 004°22'0 0.0
2016-Apr-22 08:33N 51°54' E 004°22'0 0.0
2016-Apr-22 07:33N 51°54' E 004°22'0 0.0
2016-Apr-22 06:33N 51°54' E 004°22'0 0.0
2016-Apr-22 05:33N 51°54' E 004°22'0 0.0
2016-Apr-22 04:33N 51°54' E 004°22'0 0.0
2016-Apr-22 03:33N 51°54' E 004°22'0 0.0
2016-Apr-22 02:33N 51°54' E 004°22'0 0.0
2016-Apr-22 01:33N 51°54' E 004°22'0 0.2
2016-Apr-22 00:33N 51°54' E 004°22'9 8.6
2016-Apr-21 23:33N 51°58' E 004°09'1110.7
2016-Apr-21 22:33N 51°59' E 003°52'6 6.2
2016-Apr-21 21:32N 51°57' E 003°43'0 0.0
2016-Apr-21 20:32N 51°57' E 003°43'0 0.0
2016-Apr-21 19:29N 51°57' E 003°43'0 0.0
2016-Apr-21 18:32N 51°57' E 003°43'0 0.3
2016-Apr-21 17:33N 51°56' E 003°42'1110.7
2016-Apr-21 16:33N 51°55' E 003°25'1211.6
2016-Apr-21 15:33N 51°52' E 003°07'1010.3
2016-Apr-21 14:33N 51°48' E 002°51'1110.3
2016-Apr-21 13:31N 51°44' E 002°35'1111.4
2016-Apr-21 12:33N 51°36' E 002°24'1211.8
2016-Apr-21 11:33N 51°27' E 002°12'1110.8
2016-Apr-21 10:33N 51°17' E 002°06'1111.1
2016-Apr-21 09:33N 51°10' E 001°53'1111.1
2016-Apr-21 08:33N 51°02' E 001°40'1010.4
2016-Apr-21 07:33N 50°54' E 001°29'10 9.8
2016-Apr-21 06:33N 50°45' E 001°23'39 9.6
2016-Apr-21 02:32N 50°24' E 000°32'1010.1
2016-Apr-21 01:33N 50°22' E 000°17'10 9.9
2016-Apr-21 00:33N 50°19' E 000°02'1010.0
2016-Apr-20 23:33N 50°17' W 000°13'1010.3
2016-Apr-20 22:33N 50°14' W 000°29'1211.2
2016-Apr-20 21:32N 50°11' W 000°46'1211.7
2016-Apr-20 20:30N 50°07' W 001°04'1212.6
2016-Apr-20 19:33N 50°04' W 001°22'1313.3
2016-Apr-20 18:33N 50°01' W 001°42'1313.3
2016-Apr-20 17:33N 49°57' W 002°02'1411.6
2016-Apr-20 16:19N 49°54' W 002°24'810.4
2016-Apr-20 15:33N 49°52' W 002°36'1010.0
2016-Apr-20 14:33N 49°49' W 002°50'10 9.5
2016-Apr-20 13:33N 49°44' W 003°03'10 9.6
2016-Apr-20 12:33N 49°39' W 003°16'10 9.9
2016-Apr-20 11:33N 49°34' W 003°30'1510.1
2016-Apr-20 10:04N 49°27' W 003°50'1610.0
2016-Apr-20 08:25N 49°19' W 004°12'1010.1
2016-Apr-20 07:26N 49°14' W 004°25'1110.5
2016-Apr-20 06:23N 49°08' W 004°40'  
Track history (hours):
 
Tides and Currents Weather Stations Pressure Air Temp Water Temp Dewpoint Dewpoint Depression Visibility Wind Speed Wind Dir Waves Ship Positions

Celine

Last reported at 2016-Apr-28 05:14 UTC. Time now 2016-May-04 15:29 UTC.
Position N 66°16' E 011°21'.

Length 129 m; draft 6.2 m.

Type: Cargo ship. MMSI: 269057000.

Date/timePositionNaut miles runAvg speedWind from/ knotsBaromVisibWave heightAir tempDewpointWater temp
2016-Apr-28 05:14N 66°16' E 011°21'811.8
2016-Apr-28 04:32N 66°16' E 011°42'1212.2
2016-Apr-28 03:33N 66°17' E 012°12'1212.2
2016-Apr-28 02:34N 66°13' E 012°40'6 0.1
2016-Apr-26 09:21N 66°09' E 012°52'1012.7
2016-Apr-26 08:33N 66°14' E 012°30'1211.9
2016-Apr-26 07:33N 66°17' E 012°01'50011.1
2016-Apr-24 10:30N 58°44' E 004°22'1010.4
2016-Apr-24 09:31N 58°34' E 004°27'5410.1
2016-Apr-24 04:09N 57°43' E 004°58'6 9.4
2016-Apr-24 03:33N 57°37' E 005°01'20111.2
2016-Apr-23 09:33N 54°16' E 005°11'1211.8
2016-Apr-23 08:32N 54°05' E 005°07'1312.2
2016-Apr-23 07:30N 53°53' E 004°59'1312.7
2016-Apr-23 06:30N 53°41' E 004°52'2813.6
2016-Apr-23 04:25N 53°15' E 004°34'1213.7
2016-Apr-23 03:33N 53°04' E 004°24'1313.0
2016-Apr-23 02:33N 52°52' E 004°16'1312.6
2016-Apr-23 01:32N 52°41' E 004°04'1211.8
2016-Apr-23 00:33N 52°32' E 003°54'1212.0
2016-Apr-22 23:33N 52°20' E 003°52'1211.8
2016-Apr-22 22:33N 52°08' E 003°55'8 7.7
2016-Apr-22 21:33N 52°01' E 003°59'1413.8
2016-Apr-22 20:33N 51°54' E 004°18'2 2.2
2016-Apr-22 19:33N 51°54' E 004°22'0 0.0
2016-Apr-22 18:33N 51°54' E 004°22'0 0.0
2016-Apr-22 17:33N 51°54' E 004°22'0 0.0
2016-Apr-22 16:33N 51°54' E 004°22'0 0.0
2016-Apr-22 15:30N 51°54' E 004°22'0 0.0
2016-Apr-22 14:33N 51°54' E 004°22'0 0.1
2016-Apr-22 13:33N 51°54' E 004°22'0 0.0
2016-Apr-22 12:33N 51°54' E 004°22'0 0.0
2016-Apr-22 11:33N 51°54' E 004°22'0 0.0
2016-Apr-22 10:33N 51°54' E 004°22'0 0.0
2016-Apr-22 09:33N 51°54' E 004°22'0 0.0
2016-Apr-22 08:33N 51°54' E 004°22'0 0.0
2016-Apr-22 07:33N 51°54' E 004°22'0 0.0
2016-Apr-22 06:33N 51°54' E 004°22'0 0.0
2016-Apr-22 05:33N 51°54' E 004°22'0 0.0
2016-Apr-22 04:33N 51°54' E 004°22'0 0.0
2016-Apr-22 03:33N 51°54' E 004°22'0 0.0
2016-Apr-22 02:33N 51°54' E 004°22'0 0.0
2016-Apr-22 01:33N 51°54' E 004°22'0 0.2
2016-Apr-22 00:33N 51°54' E 004°22'9 8.6
2016-Apr-21 23:33N 51°58' E 004°09'1110.7
2016-Apr-21 22:33N 51°59' E 003°52'6 6.2
2016-Apr-21 21:32N 51°57' E 003°43'0 0.0
2016-Apr-21 20:32N 51°57' E 003°43'0 0.0
2016-Apr-21 19:29N 51°57' E 003°43'0 0.0
2016-Apr-21 18:32N 51°57' E 003°43'0 0.3
2016-Apr-21 17:33N 51°56' E 003°42'1110.7
2016-Apr-21 16:33N 51°55' E 003°25'1211.6
2016-Apr-21 15:33N 51°52' E 003°07'1010.3
2016-Apr-21 14:33N 51°48' E 002°51'1110.3
2016-Apr-21 13:31N 51°44' E 002°35'1111.4
2016-Apr-21 12:33N 51°36' E 002°24'1211.8
2016-Apr-21 11:33N 51°27' E 002°12'1110.8
2016-Apr-21 10:33N 51°17' E 002°06'1111.1
2016-Apr-21 09:33N 51°10' E 001°53'1111.1
2016-Apr-21 08:33N 51°02' E 001°40'1010.4
2016-Apr-21 07:33N 50°54' E 001°29'10 9.8
2016-Apr-21 06:33N 50°45' E 001°23'39 9.6
2016-Apr-21 02:32N 50°24' E 000°32'1010.1
2016-Apr-21 01:33N 50°22' E 000°17'10 9.9
2016-Apr-21 00:33N 50°19' E 000°02'1010.0
2016-Apr-20 23:33N 50°17' W 000°13'1010.3
2016-Apr-20 22:33N 50°14' W 000°29'1211.2
2016-Apr-20 21:32N 50°11' W 000°46'1211.7
2016-Apr-20 20:30N 50°07' W 001°04'1212.6
2016-Apr-20 19:33N 50°04' W 001°22'1313.3
2016-Apr-20 18:33N 50°01' W 001°42'1313.3
2016-Apr-20 17:33N 49°57' W 002°02'1411.6
2016-Apr-20 16:19N 49°54' W 002°24'810.4
2016-Apr-20 15:33N 49°52' W 002°36'1010.0
2016-Apr-20 14:33N 49°49' W 002°50'10 9.5
2016-Apr-20 13:33N 49°44' W 003°03'10 9.6
2016-Apr-20 12:33N 49°39' W 003°16'10 9.9
2016-Apr-20 11:33N 49°34' W 003°30'1510.1
2016-Apr-20 10:04N 49°27' W 003°50'1610.0
2016-Apr-20 08:25N 49°19' W 004°12'1010.1
2016-Apr-20 07:26N 49°14' W 004°25'1110.5
2016-Apr-20 06:23N 49°08' W 004°40'  

Dump ship's entire track history